Manteo, NC

3:47 AM EDT on August 31, 2016 (GMT -0400)
Dare County Regional

Weather History for KMQI - July, 2013

Change the Weather History Date:

Sunday, July 21, 2013

  Actual Average Record
Temperature  
Mean Temperature 82 °F -  
Max Temperature 88 °F 82 °F 96 °F (1983)
Min Temperature 77 °F 73 °F 56 °F (1974)
Cooling Degree Days 18    
Growing Degree Days 32 (Base 50)    
Moisture  
Dew Point 73 °F    
Average Humidity 75    
Maximum Humidity 86    
Minimum Humidity 59    
Precipitation  
Precipitation 0.00 in - - ()
Sea Level Pressure  
Sea Level Pressure 29.97 in    
Wind  
Wind Speed 15 mph (SW)    
Max Wind Speed 23 mph    
Max Gust Speed 30 mph    
Visibility 10 miles    
Events      
Averages and records for this station are not official NWS values.
T = Trace of Precipitation, MM = Missing Value Source: NWS Daily Summary

Daily Weather History Graph

Daily Weather History Graph

Search for Another Location

Airport or City:

Trip Planner

Search our weather history database for the weather conditions in past years. The results will help you decide how hot, cold, wet, or windy it might be!

Date:

Astronomy

Jul. 21, 2013 Rise Set
Actual Time 6:02 AM EDT 8:15 PM EDT
Civil Twilight 5:33 AM EDT 8:44 PM EDT
Nautical Twilight 4:57 AM EDT 9:20 PM EDT
Astronomical Twilight 4:18 AM EDT 9:58 PM EDT
Moon 7:13 PM EDT (7/21) 4:44 AM EDT (7/21)
Length of Visible Light 15h 11m
Length of Day
14h 13m
Waxing Gibbous, 98% of the Moon is Illuminated
Jul 21
Waxing Gibbous
Jul 22
Full
Jul 29
Last Quarter
Aug 6
New
Aug 14
First Quarter

Hourly Weather History & Observations

Time (EDT) Temp. Heat Index Dew Point Humidity Pressure Visibility Wind Dir Wind Speed Gust Speed Precip Events Conditions
12:15 AM 79.3 °F - 72.7 °F 80% 29.99 in 10.0 mi WSW 18.4 mph 24.2 mph N/A   Clear
12:35 AM 79.3 °F - 72.7 °F 80% 29.99 in 10.0 mi WSW 15.0 mph 21.9 mph N/A   Clear
12:55 AM 79.2 °F - 72.0 °F 78% 29.98 in 10.0 mi WSW 17.3 mph - N/A   Clear
1:15 AM 79.0 °F - 71.6 °F 78% 29.99 in 10.0 mi WSW 17.3 mph - N/A   Clear
1:35 AM 78.8 °F - 71.2 °F 78% 29.98 in 10.0 mi WSW 16.1 mph 21.9 mph N/A   Clear
1:55 AM 78.6 °F - 70.7 °F 77% 29.99 in 10.0 mi WSW 18.4 mph 23.0 mph N/A   Clear
2:15 AM 78.4 °F - 70.9 °F 77% 29.99 in 10.0 mi WSW 16.1 mph - N/A   Clear
2:35 AM 78.3 °F - 71.6 °F 80% 29.99 in 10.0 mi WSW 16.1 mph - N/A   Clear
2:55 AM 78.1 °F - 71.4 °F 80% 29.98 in 10.0 mi WSW 15.0 mph - N/A   Clear
3:15 AM 77.9 °F - 71.6 °F 81% 29.99 in 10.0 mi WSW 13.8 mph 18.4 mph N/A   Clear
3:35 AM 77.9 °F - 71.6 °F 81% 29.99 in 10.0 mi WSW 15.0 mph 20.7 mph N/A   Clear
3:55 AM 77.9 °F - 72.0 °F 82% 29.98 in 10.0 mi WSW 15.0 mph - N/A   Clear
4:15 AM 77.9 °F - 72.3 °F 83% 29.98 in 10.0 mi WSW 12.7 mph - N/A   Clear
4:35 AM 77.7 °F - 72.3 °F 83% 29.98 in 10.0 mi WSW 13.8 mph - N/A   Clear
4:55 AM 77.5 °F - 72.5 °F 84% 29.98 in 10.0 mi WSW 11.5 mph - N/A   Clear
5:15 AM 77.4 °F - 72.7 °F 85% 29.99 in 10.0 mi WSW 10.4 mph 16.1 mph N/A   Scattered Clouds
5:35 AM 77.2 °F - 72.9 °F 86% 29.99 in 10.0 mi WSW 9.2 mph - N/A   Scattered Clouds
5:55 AM 77.2 °F - 72.7 °F 86% 30.00 in 10.0 mi WSW 9.2 mph - N/A   Clear
6:15 AM 77.4 °F - 72.9 °F 86% 30.00 in 10.0 mi WSW 10.4 mph - N/A   Mostly Cloudy
6:35 AM 77.4 °F - 72.5 °F 85% 29.99 in 10.0 mi WSW 10.4 mph - N/A   Unknown
6:55 AM 78.1 °F - 72.5 °F 83% 29.99 in 10.0 mi WSW 10.4 mph - N/A   Mostly Cloudy
7:15 AM 78.8 °F - 72.0 °F 79% 29.99 in 10.0 mi WSW 11.5 mph - N/A   Scattered Clouds
7:35 AM 78.8 °F - 72.3 °F 80% 29.99 in 10.0 mi WSW 12.7 mph - N/A   Scattered Clouds
7:55 AM 79.0 °F - 71.1 °F 77% 29.99 in 10.0 mi WSW 13.8 mph - N/A   Clear
8:15 AM 79.7 °F - 71.2 °F 75% 29.99 in 10.0 mi WSW 12.7 mph - N/A   Clear
8:35 AM 79.7 °F - 71.4 °F 76% 30.00 in 10.0 mi WSW 11.5 mph - N/A   Mostly Cloudy
8:55 AM 80.4 °F 84.2 °F 71.6 °F 74% 30.00 in 10.0 mi WSW 15.0 mph - N/A   Mostly Cloudy
9:15 AM 80.6 °F 84.4 °F 71.2 °F 73% 29.99 in 10.0 mi WSW 11.5 mph - N/A   Scattered Clouds
9:35 AM 81.5 °F 85.9 °F 71.6 °F 72% 29.99 in 10.0 mi SW 12.7 mph 17.3 mph N/A   Clear
9:55 AM 82.2 °F 86.9 °F 71.4 °F 70% 29.99 in 10.0 mi SW 12.7 mph - N/A   Clear
10:15 AM 83.3 °F 88.4 °F 71.8 °F 68% 30.00 in 10.0 mi SW 12.7 mph - N/A   Clear
10:35 AM 84.2 °F 89.6 °F 71.8 °F 66% 29.99 in 10.0 mi SW 12.7 mph - N/A   Clear
10:55 AM 84.2 °F 89.3 °F 71.4 °F 65% 29.99 in 10.0 mi SW 15.0 mph - N/A   Scattered Clouds
11:15 AM 85.1 °F 90.8 °F 71.8 °F 64% 29.99 in 10.0 mi SW 11.5 mph - N/A   Scattered Clouds
11:35 AM 86.0 °F 91.5 °F 71.2 °F 61% 30.00 in 10.0 mi SW 13.8 mph - N/A   Clear
11:55 AM 86.2 °F 91.1 °F 70.2 °F 59% 30.00 in 10.0 mi SW 10.4 mph - N/A   Scattered Clouds
12:15 PM 87.1 °F 92.8 °F 71.2 °F 59% 29.99 in 10.0 mi SW 9.2 mph - N/A   Scattered Clouds
12:35 PM 85.8 °F 94.6 °F 74.8 °F 70% 29.98 in 10.0 mi South 17.3 mph 21.9 mph N/A   Scattered Clouds
12:55 PM 85.8 °F 94.2 °F 74.7 °F 69% 29.98 in 10.0 mi South 16.1 mph - N/A   Mostly Cloudy
1:15 PM 85.3 °F 93.7 °F 75.0 °F 71% 29.98 in 10.0 mi SSW 20.7 mph 26.5 mph N/A   Mostly Cloudy
2:15 PM 86.0 °F 93.0 °F 73.2 °F 65% 29.97 in 10.0 mi SSW 15.0 mph - N/A   Mostly Cloudy
2:35 PM 87.6 °F 95.7 °F 73.8 °F 63% 29.96 in 10.0 mi SSW 16.1 mph - N/A   Scattered Clouds
2:55 PM 87.8 °F 96.6 °F 74.3 °F 64% 29.95 in 10.0 mi SSW 16.1 mph 20.7 mph N/A   Scattered Clouds
3:15 PM 88.0 °F 97.0 °F 74.3 °F 64% 29.94 in 10.0 mi SSW 15.0 mph - N/A   Mostly Cloudy
3:35 PM 86.7 °F 95.0 °F 74.1 °F 66% 29.94 in 10.0 mi SW 17.3 mph - N/A   Mostly Cloudy
3:55 PM 87.6 °F 96.2 °F 74.1 °F 64% 29.93 in 10.0 mi SW 19.6 mph - N/A   Mostly Cloudy
4:15 PM 88.3 °F 96.9 °F 73.9 °F 62% 29.93 in 10.0 mi SW 17.3 mph - N/A   Clear
4:35 PM 87.6 °F 96.2 °F 74.1 °F 64% 29.93 in 10.0 mi SSW 19.6 mph - N/A   Scattered Clouds
4:55 PM 87.1 °F 96.3 °F 75.0 °F 67% 29.92 in 10.0 mi SSW 20.7 mph 25.3 mph N/A   Scattered Clouds
5:15 PM 86.7 °F 95.9 °F 75.0 °F 68% 29.92 in 10.0 mi SW 21.9 mph - N/A   Scattered Clouds
5:35 PM 85.5 °F 93.8 °F 74.7 °F 70% 29.91 in 10.0 mi SSW 23.0 mph - N/A   Mostly Cloudy
5:55 PM 84.9 °F 92.9 °F 74.7 °F 71% 29.91 in 10.0 mi SSW 23.0 mph 29.9 mph N/A   Mostly Cloudy
6:15 PM 84.6 °F 92.1 °F 74.3 °F 71% 29.92 in 10.0 mi SW 21.9 mph - N/A   Scattered Clouds
6:35 PM 83.7 °F 90.4 °F 73.6 °F 72% 29.92 in 10.0 mi SW 19.6 mph 25.3 mph N/A   Clear
6:55 PM 83.3 °F 89.6 °F 73.6 °F 72% 29.93 in 10.0 mi SW 18.4 mph - N/A   Clear
7:15 PM 82.6 °F 88.8 °F 73.8 °F 75% 29.95 in 10.0 mi SW 15.0 mph - N/A   Scattered Clouds
7:35 PM 82.0 °F 88.4 °F 74.5 °F 78% 29.95 in 10.0 mi SW 13.8 mph - N/A   Scattered Clouds
7:55 PM 81.3 °F 86.8 °F 73.9 °F 78% 29.96 in 10.0 mi SW 13.8 mph - N/A   Scattered Clouds
8:15 PM 81.0 °F 86.2 °F 73.9 °F 79% 29.96 in 10.0 mi SW 11.5 mph - N/A   Clear
8:35 PM 80.6 °F 85.5 °F 73.8 °F 80% 29.96 in 10.0 mi SW 11.5 mph - N/A   Clear
8:55 PM 80.8 °F 85.6 °F 73.2 °F 78% 29.96 in 10.0 mi SW 13.8 mph - N/A   Clear
9:15 PM 80.6 °F 85.5 °F 73.8 °F 80% 29.97 in 10.0 mi SW 11.5 mph - N/A   Clear
9:35 PM 80.2 °F 84.7 °F 73.6 °F 80% 29.96 in 10.0 mi SW 15.0 mph - N/A   Clear
9:55 PM 80.1 °F 84.4 °F 73.4 °F 80% 29.96 in 10.0 mi SW 15.0 mph - N/A   Clear
10:15 PM 80.1 °F 84.5 °F 73.8 °F 81% 29.97 in 10.0 mi SW 13.8 mph - N/A   Scattered Clouds
10:35 PM 79.9 °F - 73.9 °F 82% 29.97 in 10.0 mi SW 16.1 mph - N/A   Scattered Clouds
10:55 PM 79.9 °F - 74.3 °F 83% 29.97 in 10.0 mi SW 16.1 mph - N/A   Mostly Cloudy
11:15 PM 79.7 °F - 74.3 °F 83% 29.97 in 10.0 mi SW 15.0 mph - N/A   Overcast
11:35 PM 79.7 °F - 74.3 °F 83% 29.97 in 10.0 mi SW 15.0 mph - N/A   Overcast
11:55 PM 79.2 °F - 74.1 °F 84% 29.96 in 10.0 mi SW 16.1 mph - N/A   Scattered Clouds